createdAt,value
2017-01-21T00:00:20.123Z,45.25
2017-01-21T00:01:20.133Z,45.15
2017-01-21T00:02:20.081Z,45.25
2017-01-21T00:03:20.062Z,45.43
2017-01-21T00:04:20.041Z,46.19
2017-01-21T00:05:20.020Z,46.75
2017-01-21T00:06:20.002Z,46.94
2017-01-21T00:07:19.983Z,46.85
2017-01-21T00:08:19.959Z,46.38
2017-01-21T00:09:19.940Z,45.53
2017-01-21T00:10:19.926Z,43.74
2017-01-21T00:11:19.897Z,42.04
2017-01-21T00:12:19.899Z,40.34
2017-01-21T00:13:19.858Z,38.37
2017-01-21T00:14:19.837Z,36.57
2017-01-21T00:15:19.816Z,36.01
2017-01-21T00:16:19.795Z,36.01
2017-01-21T00:17:19.777Z,35.72
2017-01-21T00:18:19.758Z,35.25
2017-01-21T00:19:19.735Z,34.03
2017-01-21T00:20:19.713Z,35.06
2017-01-21T00:21:19.694Z,35.72
2017-01-21T00:22:19.674Z,35.72
2017-01-21T00:23:19.654Z,35.63
2017-01-21T00:24:19.637Z,35.82
2017-01-21T00:25:19.611Z,35.63
2017-01-21T00:26:19.593Z,37.05
2017-01-21T00:27:19.575Z,37.8
2017-01-21T00:28:19.552Z,38.08
2017-01-21T00:29:19.529Z,39.59
2017-01-21T00:30:19.508Z,42.32
2017-01-21T00:31:19.491Z,45.62
2017-01-21T00:32:19.470Z,48.08
2017-01-21T00:33:19.450Z,47.89
2017-01-21T00:34:19.428Z,47.04
2017-01-21T00:35:19.408Z,44.68
2017-01-21T00:36:19.390Z,44.21
2017-01-21T00:37:19.364Z,44.4
2017-01-21T00:38:19.347Z,44.87
2017-01-21T00:39:19.327Z,45.06
2017-01-21T00:40:19.303Z,44.87
2017-01-21T00:41:19.283Z,44.02
2017-01-21T00:42:19.268Z,42.99
2017-01-21T00:43:19.246Z,41.76
2017-01-21T00:44:19.224Z,41.19
2017-01-21T00:45:19.202Z,40.81
2017-01-21T00:46:19.181Z,40.63
2017-01-21T00:47:19.164Z,41.1
2017-01-21T00:48:19.140Z,41.38
2017-01-21T00:49:19.122Z,42.23
2017-01-21T00:50:19.100Z,42.51
2017-01-21T00:51:19.080Z,42.14
2017-01-21T00:52:19.059Z,41.38
2017-01-21T00:53:19.037Z,41.1
2017-01-21T00:54:19.017Z,40.44
2017-01-21T00:55:18.997Z,38.46
2017-01-21T00:56:18.978Z,36.57
2017-01-21T00:57:18.955Z,35.06
2017-01-21T00:58:18.935Z,34.03
2017-01-21T00:59:18.912Z,34.22
2017-01-21T01:00:18.892Z,35.44
2017-01-21T01:01:18.874Z,35.82
2017-01-21T01:02:18.851Z,36.2
2017-01-21T01:03:18.831Z,38.75
2017-01-21T01:04:18.810Z,41.19
2017-01-21T01:05:18.790Z,42.99
2017-01-21T01:06:18.770Z,44.96
2017-01-21T01:07:18.750Z,45.43
2017-01-21T01:08:18.729Z,43.74
2017-01-21T01:09:18.709Z,42.14
2017-01-21T01:10:18.689Z,40.63
2017-01-21T01:11:18.668Z,39.59
2017-01-21T01:12:18.968Z,37.33
2017-01-21T01:13:18.626Z,34.97
2017-01-21T01:14:18.605Z,32.8
2017-01-21T01:15:18.615Z,31.48
2017-01-21T01:16:18.564Z,30.35
2017-01-21T01:17:18.544Z,29.22
2017-01-21T01:18:18.674Z,28.85
2017-01-21T01:19:18.504Z,29.13
2017-01-21T01:20:18.485Z,29.32
2017-01-21T01:21:18.464Z,29.6
2017-01-21T01:22:18.444Z,29.41
2017-01-21T01:23:18.518Z,29.41
2017-01-21T01:24:18.401Z,29.32
2017-01-21T01:25:18.379Z,29.13
2017-01-21T01:26:18.418Z,29.03
2017-01-21T01:27:18.340Z,29.13
2017-01-21T01:28:18.318Z,28.94
2017-01-21T01:29:18.639Z,28.94
2017-01-21T01:30:18.280Z,29.5
2017-01-21T01:31:18.257Z,29.88
2017-01-21T01:32:18.355Z,30.35
2017-01-21T01:33:18.222Z,30.82
2017-01-21T01:34:18.197Z,31.29
2017-01-21T01:35:18.516Z,31.67
2017-01-21T01:36:18.159Z,31.58
2017-01-21T01:37:18.137Z,31.86
2017-01-21T01:38:18.115Z,32.14
2017-01-21T01:39:18.601Z,31.77
2017-01-21T01:40:18.075Z,31.86
2017-01-21T01:41:18.055Z,31.86
2017-01-21T01:42:18.282Z,31.48
2017-01-21T01:43:18.014Z,31.67
2017-01-21T01:44:17.999Z,31.86
2017-01-21T01:45:17.982Z,31.77
2017-01-21T01:46:17.954Z,31.77
2017-01-21T01:47:18.061Z,31.95
2017-01-21T01:48:17.913Z,31.86
2017-01-21T01:49:17.890Z,31.58
2017-01-21T01:50:18.745Z,31.39
2017-01-21T01:51:17.849Z,31.77
2017-01-21T01:52:17.835Z,31.77
2017-01-21T01:53:18.157Z,31.1
2017-01-21T01:54:17.788Z,30.73
2017-01-21T01:55:17.767Z,29.97
2017-01-21T01:56:18.166Z,29.41
2017-01-21T01:57:17.730Z,29.03
2017-01-21T01:58:17.708Z,29.03
2017-01-21T01:59:17.837Z,28.75
2017-01-21T02:00:17.666Z,28.09
2017-01-21T02:01:17.649Z,27.34
2017-01-21T02:02:18.096Z,26.86
2017-01-21T02:03:17.604Z,26.39
2017-01-21T02:04:17.586Z,25.54
2017-01-21T02:05:18.012Z,25.73
2017-01-21T02:06:17.546Z,26.11
2017-01-21T02:07:17.531Z,28.09
2017-01-21T02:08:17.579Z,28.94
2017-01-21T02:09:17.482Z,28.75
2017-01-21T02:10:17.463Z,28.47
2017-01-21T02:11:17.442Z,28.94
2017-01-21T02:12:17.426Z,29.22
2017-01-21T02:13:17.403Z,30.26
2017-01-21T02:14:17.384Z,31.58
2017-01-21T02:15:17.361Z,31.77
2017-01-21T02:16:17.341Z,31.58
2017-01-21T02:17:17.323Z,30.82
2017-01-21T02:18:17.302Z,30.73
2017-01-21T02:19:17.280Z,30.54
2017-01-21T02:20:17.260Z,31.67
2017-01-21T02:21:17.240Z,32.52
2017-01-21T02:22:17.219Z,33.47
2017-01-21T02:23:17.268Z,33.94
2017-01-21T02:24:17.179Z,33.84
2017-01-21T02:25:17.160Z,33.18
2017-01-21T02:26:17.138Z,33.75
2017-01-21T02:27:17.116Z,33.75
2017-01-21T02:28:17.098Z,34.03
2017-01-21T02:29:17.078Z,34.12
2017-01-21T02:30:17.060Z,34.78
2017-01-21T02:31:17.042Z,35.25
2017-01-21T02:32:17.014Z,34.03
2017-01-21T02:33:16.997Z,34.22
2017-01-21T02:34:16.976Z,33.09
2017-01-21T02:35:16.955Z,33.94
2017-01-21T02:36:16.934Z,33.65
2017-01-21T02:37:16.914Z,34.12
2017-01-21T02:38:16.893Z,33.18
2017-01-21T02:39:16.873Z,32.62
2017-01-21T02:40:16.853Z,32.43
2017-01-21T02:41:16.834Z,32.52
2017-01-21T02:42:16.879Z,31.67
2017-01-21T02:43:16.790Z,29.69
2017-01-21T02:44:16.770Z,27.34
2017-01-21T02:45:16.750Z,25.54
2017-01-21T02:46:16.734Z,24.51
2017-01-21T02:47:16.709Z,23.94
2017-01-21T02:48:16.708Z,23.75
2017-01-21T02:49:16.670Z,23.94
2017-01-21T02:50:16.649Z,24.79
2017-01-21T02:51:16.627Z,25.45
2017-01-21T02:52:16.707Z,25.92
2017-01-21T02:53:16.586Z,26.77
2017-01-21T02:54:16.568Z,27.15
2017-01-21T02:55:16.545Z,28.38
2017-01-21T02:56:16.524Z,29.41
2017-01-21T02:57:16.505Z,30.73
2017-01-21T02:58:16.484Z,32.05
2017-01-21T02:59:16.461Z,32.9
2017-01-21T03:00:16.441Z,33.94
2017-01-21T03:01:16.421Z,35.53
2017-01-21T03:02:16.403Z,36.01
2017-01-21T03:03:16.381Z,37.14
2017-01-21T03:04:16.386Z,37.99
2017-01-21T03:05:16.340Z,39.31
2017-01-21T03:06:16.319Z,41.19
2017-01-21T03:07:16.403Z,40.72
2017-01-21T03:08:16.286Z,41.1
2017-01-21T03:09:16.656Z,42.89
2017-01-21T03:10:16.354Z,44.78
2017-01-21T03:11:16.219Z,46.94
2017-01-21T03:12:16.198Z,48.83
2017-01-21T03:13:16.243Z,50.24
2017-01-21T03:14:16.155Z,50.81
2017-01-21T03:15:16.141Z,50.9
2017-01-21T03:16:16.114Z,50.24
2017-01-21T03:17:16.196Z,49.87
2017-01-21T03:18:16.073Z,48.36
2017-01-21T03:19:16.053Z,46.19
2017-01-21T03:20:16.185Z,45.06
2017-01-21T03:21:16.015Z,44.49
2017-01-21T03:22:15.991Z,44.87
2017-01-21T03:23:16.073Z,46.47
2017-01-21T03:24:15.952Z,48.55
2017-01-21T03:25:15.931Z,50.24
2017-01-21T03:26:16.004Z,51.56
2017-01-21T03:27:15.893Z,53.92
2017-01-21T03:28:15.868Z,53.83
2017-01-21T03:29:15.849Z,52.69
2017-01-21T03:30:15.826Z,51.37
2017-01-21T03:31:15.902Z,50.81
2017-01-21T03:32:15.787Z,52.41
2017-01-21T03:33:15.765Z,54.3
2017-01-21T03:34:15.814Z,55.9
2017-01-21T03:35:15.727Z,55.33
2017-01-21T03:36:15.706Z,53.54
2017-01-21T03:37:15.755Z,52.79
2017-01-21T03:38:15.661Z,51.47
2017-01-21T03:39:15.645Z,47.98
2017-01-21T03:40:15.622Z,43.65
2017-01-21T03:41:15.601Z,40.34
2017-01-21T03:42:15.584Z,40.44
2017-01-21T03:43:15.559Z,42.23
2017-01-21T03:44:15.538Z,43.46
2017-01-21T03:45:15.517Z,45.43
2017-01-21T03:46:15.496Z,45.9
2017-01-21T03:47:15.477Z,46.75
2017-01-21T03:48:15.464Z,48.45
2017-01-21T03:49:15.433Z,49.4
2017-01-21T03:50:15.413Z,50.71
2017-01-21T03:51:15.390Z,52.79
2017-01-21T03:52:15.372Z,53.92
2017-01-21T03:53:15.351Z,55.05
2017-01-21T03:54:15.328Z,54.96
2017-01-21T03:55:15.307Z,55.33
2017-01-21T03:56:15.290Z,55.05
2017-01-21T03:57:15.270Z,55.24
2017-01-21T03:58:15.247Z,55.33
2017-01-21T03:59:15.225Z,53.17
2017-01-21T04:00:15.206Z,50.71
2017-01-21T04:01:15.185Z,49.49
2017-01-21T04:02:15.163Z,48.27
2017-01-21T04:03:15.145Z,47.13
2017-01-21T04:04:15.123Z,46.19
2017-01-21T04:05:15.101Z,46.94
2017-01-21T04:06:15.084Z,48.55
2017-01-21T04:07:15.063Z,50.99
2017-01-21T04:08:15.040Z,53.07
2017-01-21T04:09:15.018Z,55.43
2017-01-21T04:10:14.997Z,55.52
2017-01-21T04:11:14.974Z,55.99
2017-01-21T04:12:14.956Z,55.99
2017-01-21T04:13:14.937Z,55.52
2017-01-21T04:14:14.916Z,55.52
2017-01-21T04:15:14.894Z,54.93
2017-01-21T04:16:14.873Z,54.68
2017-01-21T04:17:14.851Z,55.52
2017-01-21T04:18:14.833Z,54.49
2017-01-21T04:19:14.814Z,54.49
2017-01-21T04:20:14.789Z,53.83
2017-01-21T04:21:14.767Z,53.92
2017-01-21T04:22:14.747Z,54.49
2017-01-21T04:23:14.730Z,54.58
2017-01-21T04:24:14.706Z,54.64
2017-01-21T04:25:14.686Z,53.92
2017-01-21T04:26:14.666Z,54.11
2017-01-21T04:27:14.647Z,53.92
2017-01-21T04:28:14.622Z,54.11
2017-01-21T04:29:14.604Z,55.43
2017-01-21T04:30:14.588Z,57.78
2017-01-21T04:31:14.560Z,59.64
2017-01-21T04:32:14.539Z,60.96
2017-01-21T04:33:14.519Z,61.33
2017-01-21T04:34:14.496Z,61.52
2017-01-21T04:35:14.476Z,61.71
2017-01-21T04:36:14.462Z,62.18
2017-01-21T04:37:14.433Z,62.09
2017-01-21T04:38:14.414Z,61.99
2017-01-21T04:39:14.392Z,61.62
2017-01-21T04:40:14.386Z,61.99
2017-01-21T04:41:14.352Z,61.81
2017-01-21T04:42:14.333Z,59.74
2017-01-21T04:43:14.309Z,58.98
2017-01-21T04:44:14.287Z,58.51
2017-01-21T04:45:14.265Z,57.95
2017-01-21T04:46:14.244Z,55.87
2017-01-21T04:47:14.224Z,54.46
2017-01-21T04:48:14.204Z,53.23
2017-01-21T04:49:14.181Z,52.48
2017-01-21T04:50:14.164Z,52.86
2017-01-21T04:51:14.140Z,54.27
2017-01-21T04:52:14.119Z,55.68
2017-01-21T04:53:14.102Z,56.72
2017-01-21T04:54:14.077Z,59.36
2017-01-21T04:55:14.057Z,61.99
2017-01-21T04:56:14.036Z,62.18
2017-01-21T04:57:14.013Z,63.03
2017-01-21T04:58:13.995Z,63.6
2017-01-21T04:59:13.971Z,63.6
2017-01-21T05:00:14.002Z,63.88
2017-01-21T05:01:13.927Z,65.39
2017-01-21T05:02:13.909Z,65.86
2017-01-21T05:03:13.887Z,66.52
2017-01-21T05:04:13.866Z,67.08
2017-01-21T05:05:13.843Z,67.08
2017-01-21T05:06:13.823Z,68.02
2017-01-21T05:07:13.801Z,68.4
2017-01-21T05:08:13.783Z,68.4
2017-01-21T05:09:13.761Z,67.65
2017-01-21T05:10:13.739Z,67.55
2017-01-21T05:11:13.717Z,66.89
2017-01-21T05:12:13.696Z,65.3
2017-01-21T05:13:13.673Z,63.03
2017-01-21T05:14:13.652Z,61.52
2017-01-21T05:15:13.633Z,58.98
2017-01-21T05:16:13.613Z,57.95
2017-01-21T05:17:13.591Z,58.13
2017-01-21T05:18:13.568Z,58.61
2017-01-21T05:19:13.549Z,59.17
2017-01-21T05:20:13.526Z,59.83
2017-01-21T05:21:13.510Z,58.32
2017-01-21T05:22:13.485Z,58.8
2017-01-21T05:23:13.466Z,58.51
2017-01-21T05:24:13.441Z,57.19
2017-01-21T05:25:13.420Z,55.78
2017-01-21T05:26:13.398Z,54.93
2017-01-21T05:27:13.379Z,54.55
2017-01-21T05:28:13.358Z,54.55
2017-01-21T05:29:13.337Z,55.3
2017-01-21T05:30:13.314Z,54.93
2017-01-21T05:31:13.296Z,55.02
2017-01-21T05:32:13.272Z,55.49
2017-01-21T05:33:13.250Z,56.72
2017-01-21T05:34:13.227Z,57.85
2017-01-21T05:35:13.206Z,58.23
2017-01-21T05:36:13.183Z,57
2017-01-21T05:37:13.165Z,56.81
2017-01-21T05:38:13.142Z,57.76
2017-01-21T05:39:13.129Z,58.98
2017-01-21T05:40:13.101Z,60.02
2017-01-21T05:41:13.080Z,60.21
2017-01-21T05:42:13.060Z,59.74
2017-01-21T05:43:13.040Z,58.42
2017-01-21T05:44:13.017Z,59.08
2017-01-21T05:45:12.997Z,60.96
2017-01-21T05:46:12.973Z,62.37
2017-01-21T05:47:12.954Z,61.71
2017-01-21T05:48:12.932Z,61.15
2017-01-21T05:49:12.910Z,62.09
2017-01-21T05:50:12.889Z,63.6
2017-01-21T05:51:12.868Z,64.83
2017-01-21T05:52:12.845Z,66.33
2017-01-21T05:53:12.825Z,67.36
2017-01-21T05:54:12.803Z,67.93
2017-01-21T05:55:12.783Z,69.44
2017-01-21T05:56:12.760Z,70.01
2017-01-21T05:57:12.739Z,69.44
2017-01-21T05:58:12.719Z,69.35
2017-01-21T05:59:12.695Z,68.59
2017-01-21T06:00:12.673Z,68.4
2017-01-21T06:01:12.653Z,68.5
2017-01-21T06:02:12.632Z,67.93
2017-01-21T06:03:12.611Z,66.8
2017-01-21T06:04:12.589Z,65.58
2017-01-21T06:05:12.568Z,64.45
2017-01-21T06:06:12.544Z,63.98
2017-01-21T06:07:12.526Z,64.26
2017-01-21T06:08:12.505Z,64.73
2017-01-21T06:09:12.483Z,65.3
2017-01-21T06:10:12.460Z,65.77
2017-01-21T06:11:12.441Z,65.2
2017-01-21T06:12:12.418Z,63.6
2017-01-21T06:13:12.397Z,62.75
2017-01-21T06:14:12.375Z,61.9
2017-01-21T06:15:12.352Z,62.09
2017-01-21T06:16:12.332Z,61.99
2017-01-21T06:17:12.311Z,62.18
2017-01-21T06:18:12.291Z,63.32
2017-01-21T06:19:12.270Z,63.5
2017-01-21T06:20:12.247Z,62.28
2017-01-21T06:21:12.234Z,59.36
2017-01-21T06:22:12.203Z,56.81
2017-01-21T06:23:12.185Z,53.52
2017-01-21T06:24:12.162Z,52.67
2017-01-21T06:25:12.141Z,51.73
2017-01-21T06:26:12.120Z,51.26
2017-01-21T06:27:12.095Z,51.82
2017-01-21T06:28:12.076Z,51.16
2017-01-21T06:29:12.055Z,50.12
2017-01-21T06:30:12.033Z,48.8
2017-01-21T06:31:12.011Z,48.24
2017-01-21T06:32:11.995Z,48.24
2017-01-21T06:33:11.971Z,49.46
2017-01-21T06:34:11.945Z,50.59
2017-01-21T06:35:11.925Z,53.05
2017-01-21T06:36:11.904Z,55.49
2017-01-21T06:37:11.882Z,58.8
2017-01-21T06:38:11.860Z,61.05
2017-01-21T06:39:11.840Z,61.43
2017-01-21T06:40:11.820Z,59.08
2017-01-21T06:41:11.798Z,57.66
2017-01-21T06:42:11.775Z,55.96
2017-01-21T06:43:11.753Z,54.55
2017-01-21T06:44:11.734Z,54.83
2017-01-21T06:45:11.715Z,56.06
2017-01-21T06:46:11.689Z,56.72
2017-01-21T06:47:11.668Z,57.47
2017-01-21T06:48:11.648Z,56.62
2017-01-21T06:49:11.627Z,57.1
2017-01-21T06:50:11.607Z,57.38
2017-01-21T06:51:11.582Z,56.81
2017-01-21T06:52:11.562Z,54.93
2017-01-21T06:53:11.540Z,53.8
2017-01-21T06:54:11.518Z,52.1
2017-01-21T06:55:11.499Z,50.31
2017-01-21T06:56:11.477Z,48.33
2017-01-21T06:57:11.455Z,48.05
2017-01-21T06:58:11.434Z,48.24
2017-01-21T06:59:11.414Z,49.75
2017-01-21T07:00:11.391Z,51.63
2017-01-21T07:01:11.367Z,53.89
2017-01-21T07:02:11.349Z,55.21
2017-01-21T07:03:11.328Z,55.78
2017-01-21T07:04:11.307Z,56.81
2017-01-21T07:05:11.291Z,56.81
2017-01-21T07:06:11.264Z,58.04
2017-01-21T07:07:11.241Z,59.27
2017-01-21T07:08:11.218Z,60.68
2017-01-21T07:09:11.199Z,61.99
2017-01-21T07:10:11.178Z,63.22
2017-01-21T07:11:11.158Z,64.45
2017-01-21T07:12:11.135Z,65.77
2017-01-21T07:13:11.113Z,67.55
2017-01-21T07:14:11.092Z,68.59
2017-01-21T07:15:11.070Z,69.63
2017-01-21T07:16:11.051Z,69.82
2017-01-21T07:17:11.035Z,69.72
2017-01-21T07:18:11.010Z,68.4
2017-01-21T07:19:11.048Z,67.46
2017-01-21T07:20:10.966Z,65.67
2017-01-21T07:21:10.942Z,64.73
2017-01-21T07:22:10.922Z,62.37
2017-01-21T07:23:10.901Z,60.3
2017-01-21T07:24:10.908Z,60.21
2017-01-21T07:25:10.857Z,61.99
2017-01-21T07:26:10.837Z,63.32
2017-01-21T07:27:10.815Z,64.64
2017-01-21T07:28:10.794Z,67.84
2017-01-21T07:29:10.773Z,70.38
2017-01-21T07:30:10.751Z,72.27
2017-01-21T07:31:10.729Z,72.27
2017-01-21T07:32:10.708Z,70.76
2017-01-21T07:33:10.686Z,69.06
2017-01-21T07:34:10.666Z,67.18
2017-01-21T07:35:10.645Z,65.48
2017-01-21T07:36:10.622Z,65.01
2017-01-21T07:37:10.627Z,63.88
2017-01-21T07:38:10.580Z,62.18
2017-01-21T07:39:10.559Z,60.39
2017-01-21T07:40:10.536Z,60.11
2017-01-21T07:41:10.542Z,62.18
2017-01-21T07:42:10.494Z,63.32
2017-01-21T07:43:10.473Z,64.07
2017-01-21T07:44:10.451Z,63.69
2017-01-21T07:45:10.429Z,64.16
2017-01-21T07:46:10.409Z,64.07
2017-01-21T07:47:10.393Z,65.11
2017-01-21T07:48:10.367Z,67.84
2017-01-21T07:49:10.345Z,68.68
2017-01-21T07:50:10.324Z,68.68
2017-01-21T07:51:10.302Z,67.46
2017-01-21T07:52:10.282Z,67.08
2017-01-21T07:53:10.262Z,66.52
2017-01-21T07:54:10.239Z,66.14
2017-01-21T07:55:10.219Z,66.14
2017-01-21T07:56:10.198Z,66.52
2017-01-21T07:57:10.176Z,65.11
2017-01-21T07:58:10.157Z,63.41
2017-01-21T07:59:10.133Z,61.9
2017-01-21T08:00:10.111Z,61.24
2017-01-21T08:01:10.092Z,60.77
2017-01-21T08:02:10.069Z,59.92
2017-01-21T08:03:10.049Z,58.61
2017-01-21T08:04:10.028Z,58.07
2017-01-21T08:05:10.006Z,58.73
2017-01-21T08:06:09.983Z,59.77
2017-01-21T08:07:09.962Z,60.05
2017-01-21T08:08:09.940Z,60.05
2017-01-21T08:09:09.921Z,59.58
2017-01-21T08:10:09.901Z,60.14
2017-01-21T08:11:10.198Z,60.52
2017-01-21T08:12:09.857Z,60.71
2017-01-21T08:13:09.836Z,60.71
2017-01-21T08:14:09.812Z,59.86
2017-01-21T08:15:09.793Z,59.2
2017-01-21T08:16:09.775Z,58.73
2017-01-21T08:17:09.749Z,58.54
2017-01-21T08:18:09.730Z,58.26
2017-01-21T08:19:09.708Z,58.35
2017-01-21T08:20:09.688Z,59.3
2017-01-21T08:21:09.666Z,57.97
2017-01-21T08:22:09.648Z,55.62
2017-01-21T08:23:09.624Z,54.49
2017-01-21T08:24:09.606Z,53.64
2017-01-21T08:25:09.583Z,53.07
2017-01-21T08:26:09.563Z,53.92
2017-01-21T08:27:09.542Z,54.39
2017-01-21T08:28:09.520Z,53.92
2017-01-21T08:29:09.498Z,52.79
2017-01-21T08:30:09.477Z,51.18
2017-01-21T08:31:09.460Z,50.15
2017-01-21T08:32:09.434Z,49.96
2017-01-21T08:33:09.414Z,49.49
2017-01-21T08:34:09.395Z,47.98
2017-01-21T08:35:09.380Z,46.28
2017-01-21T08:36:09.352Z,44.78
2017-01-21T08:37:09.329Z,43.27
2017-01-21T08:38:09.326Z,42.14
2017-01-21T08:39:09.316Z,41.57
2017-01-21T08:40:09.273Z,41.1
2017-01-21T08:41:09.249Z,41
2017-01-21T08:42:09.624Z,40.25
2017-01-21T08:43:09.208Z,40.25
2017-01-21T08:44:09.185Z,40.44
2017-01-21T08:45:09.166Z,40.63
2017-01-21T08:46:09.144Z,40.91
2017-01-21T08:47:09.124Z,40.44
2017-01-21T08:48:09.104Z,40.53
2017-01-21T08:49:09.083Z,40.93
2017-01-21T08:50:09.063Z,40.36
2017-01-21T08:51:09.043Z,39.99
2017-01-21T08:52:09.020Z,39.61
2017-01-21T08:53:09.003Z,39.14
2017-01-21T08:54:08.981Z,38.48
2017-01-21T08:55:08.962Z,37.25
2017-01-21T08:56:08.940Z,36.88
2017-01-21T08:57:08.919Z,36.22
2017-01-21T08:58:08.903Z,36.59
2017-01-21T08:59:08.878Z,37.35
2017-01-21T09:00:08.860Z,38.48
2017-01-21T09:01:08.838Z,39.51
2017-01-21T09:02:08.818Z,39.8
2017-01-21T09:03:08.798Z,40.55
2017-01-21T09:04:08.776Z,40.18
2017-01-21T09:05:08.757Z,38.48
2017-01-21T09:06:08.739Z,36.59
2017-01-21T09:07:08.717Z,36.03
2017-01-21T09:08:08.696Z,36.69
2017-01-21T09:09:08.679Z,37.07
2017-01-21T09:10:08.658Z,36.4
2017-01-21T09:11:08.641Z,35.18
2017-01-21T09:12:08.618Z,34.8
2017-01-21T09:13:08.599Z,33.76
2017-01-21T09:14:08.580Z,33.58
2017-01-21T09:15:08.560Z,33.67
2017-01-21T09:16:08.537Z,35.36
2017-01-21T09:17:08.520Z,36.59
2017-01-21T09:18:08.497Z,37.82
2017-01-21T09:19:08.479Z,37.07
2017-01-21T09:20:08.456Z,36.22
2017-01-21T09:21:08.441Z,36.88
2017-01-21T09:22:08.420Z,37.25
2017-01-21T09:23:08.401Z,36.03
2017-01-21T09:24:08.380Z,35.93
2017-01-21T09:25:08.364Z,36.22
2017-01-21T09:26:08.345Z,35.27
2017-01-21T09:27:08.324Z,34.23
2017-01-21T09:28:08.306Z,32.82
2017-01-21T09:29:08.284Z,32.18
2017-01-21T09:30:08.264Z,33.4
2017-01-21T09:31:08.247Z,33.03
2017-01-21T09:32:08.224Z,32.27
2017-01-21T09:33:08.204Z,31.51
2017-01-21T09:34:08.185Z,32.46
2017-01-21T09:35:08.176Z,33.12
2017-01-21T09:36:08.146Z,33.5
2017-01-21T09:37:08.125Z,33.22
2017-01-21T09:38:08.107Z,33.97
2017-01-21T09:39:08.089Z,32.46
2017-01-21T09:40:08.068Z,30.1
2017-01-21T09:41:08.049Z,28.69
2017-01-21T09:42:08.028Z,30.1
2017-01-21T09:43:08.010Z,31.42
2017-01-21T09:44:07.992Z,33.12
2017-01-21T09:45:07.971Z,33.5
2017-01-21T09:46:07.955Z,31.8
2017-01-21T09:47:07.931Z,28.59
2017-01-21T09:48:07.914Z,25.85
2017-01-21T09:49:07.901Z,24.44
2017-01-21T09:50:07.878Z,23.4
2017-01-21T09:51:07.856Z,23.11
2017-01-21T09:52:07.837Z,22.83
2017-01-21T09:53:07.818Z,24.34
2017-01-21T09:54:07.800Z,24.16
2017-01-21T09:55:07.779Z,23.68
2017-01-21T09:56:07.759Z,24.53
2017-01-21T09:57:07.740Z,25.67
2017-01-21T09:58:07.721Z,27.55
2017-01-21T09:59:07.704Z,28.5
2017-01-21T10:00:07.683Z,29.35
2017-01-21T10:01:07.667Z,30.76
2017-01-21T10:02:07.649Z,31.89
2017-01-21T10:03:07.629Z,32.84
2017-01-21T10:04:07.607Z,34.06
2017-01-21T10:05:07.589Z,36.14
2017-01-21T10:06:07.571Z,36.61
2017-01-21T10:07:07.950Z,36.05
2017-01-21T10:08:07.531Z,36.24
2017-01-21T10:09:07.511Z,36.42
2017-01-21T10:10:07.495Z,35.48
2017-01-21T10:11:07.473Z,34.06
2017-01-21T10:12:07.454Z,31.8
2017-01-21T10:13:07.437Z,29.72
2017-01-21T10:14:07.418Z,28.97
2017-01-21T10:15:07.398Z,28.88
2017-01-21T10:16:07.379Z,29.06
2017-01-21T10:17:07.361Z,29.91
2017-01-21T10:18:07.343Z,31.91
2017-01-21T10:19:07.321Z,33.31
2017-01-21T10:20:07.305Z,34.08
2017-01-21T10:21:07.285Z,34.27
2017-01-21T10:22:07.266Z,34.16
2017-01-21T10:23:07.248Z,34.08
2017-01-21T10:24:07.230Z,34.17
2017-01-21T10:25:07.211Z,34.36
2017-01-21T10:26:07.192Z,35.69
2017-01-21T10:27:07.172Z,37.19
2017-01-21T10:28:07.156Z,37.29
2017-01-21T10:29:07.141Z,37.19
2017-01-21T10:30:07.117Z,36.07
2017-01-21T10:31:07.101Z,35.21
2017-01-21T10:32:07.078Z,33.98
2017-01-21T10:33:07.061Z,32.95
2017-01-21T10:34:07.046Z,32
2017-01-21T10:35:07.027Z,29.74
2017-01-21T10:36:07.007Z,27.37
2017-01-21T10:37:06.989Z,26.81
2017-01-21T10:38:06.971Z,25.3
2017-01-21T10:39:06.952Z,23.98
2017-01-21T10:40:06.932Z,23.79
2017-01-21T10:41:06.941Z,24.07
2017-01-21T10:42:06.901Z,23.22
2017-01-21T10:43:06.879Z,22.95
2017-01-21T10:44:06.864Z,22.38
2017-01-21T10:45:06.843Z,20.87
2017-01-21T10:46:06.824Z,22.57
2017-01-21T10:47:06.808Z,24.08
2017-01-21T10:48:06.787Z,28.81
2017-01-21T10:49:06.772Z,27.29
2017-01-21T10:50:06.759Z,27.58
2017-01-21T10:51:06.734Z,28.52
2017-01-21T10:52:06.717Z,30.51
2017-01-21T10:53:06.697Z,32.87
2017-01-21T10:54:06.680Z,32.78
2017-01-21T10:55:07.058Z,32.87
2017-01-21T10:56:06.642Z,32.68
2017-01-21T10:57:06.629Z,33.81
2017-01-21T10:58:06.613Z,34.85
2017-01-21T10:59:06.591Z,36.08
2017-01-21T11:00:06.575Z,38.26
2017-01-21T11:01:06.558Z,39.48
2017-01-21T11:02:06.542Z,40.33
2017-01-21T11:03:06.523Z,40.54
2017-01-21T11:04:06.507Z,41.49
2017-01-21T11:05:06.490Z,42.43
2017-01-21T11:06:06.471Z,46.59
2017-01-21T11:07:06.457Z,48.57
2017-01-21T11:08:06.439Z,47.53
2017-01-21T11:09:06.422Z,46.12
2017-01-21T11:10:06.403Z,48.2
2017-01-21T11:11:06.385Z,50.27
2017-01-21T11:12:06.366Z,51.5
2017-01-21T11:13:06.349Z,50.84
2017-01-21T11:14:06.334Z,51.03
2017-01-21T11:15:06.313Z,51.13
2017-01-21T11:16:06.301Z,52.83
2017-01-21T11:17:06.280Z,52.26
2017-01-21T11:18:06.263Z,52.92
2017-01-21T11:19:06.248Z,54.15
2017-01-21T11:20:06.227Z,56.42
2017-01-21T11:21:06.214Z,55.94
2017-01-21T11:22:06.197Z,54.62
2017-01-21T11:23:06.179Z,54.44
2017-01-21T11:24:06.160Z,54.06
2017-01-21T11:25:06.145Z,53.58
2017-01-21T11:26:06.127Z,53.2
2017-01-21T11:27:06.112Z,55
2017-01-21T11:28:06.106Z,58.4
2017-01-21T11:29:06.077Z,57.18
2017-01-21T11:30:06.059Z,57.58
2017-01-21T11:31:06.043Z,58.91
2017-01-21T11:32:06.423Z,60.61
2017-01-21T11:33:06.282Z,60.99
2017-01-21T11:34:05.992Z,61.18
2017-01-21T11:35:05.974Z,62.4
2017-01-21T11:36:05.959Z,62.4
2017-01-21T11:37:05.943Z,63.64
2017-01-21T11:38:05.927Z,69.21
2017-01-21T11:39:05.907Z,75.83
2017-01-21T11:40:05.892Z,76.78
2017-01-21T11:41:05.876Z,76.78
2017-01-21T11:42:05.857Z,76.78
2017-01-21T11:43:05.844Z,76.31
2017-01-21T11:44:05.828Z,76.5
2017-01-21T11:45:05.812Z,77.72
2017-01-21T11:46:05.792Z,79.09
2017-01-21T11:47:05.779Z,82.59
2017-01-21T11:48:05.762Z,81.93
2017-01-21T11:49:05.745Z,87.51
2017-01-21T11:50:05.731Z,95.74
2017-01-21T11:51:05.713Z,99.43
2017-01-21T11:52:05.699Z,99.99
2017-01-21T11:53:05.679Z,98.96
2017-01-21T11:54:05.663Z,97.53
2017-01-21T11:55:05.653Z,99.05
2017-01-21T11:56:05.630Z,98.86
2017-01-21T11:57:05.618Z,99.8
2017-01-21T11:58:05.598Z,99.99
2017-01-21T11:59:05.584Z,99.99
2017-01-21T12:00:05.573Z,99.99
2017-01-21T12:01:05.550Z,99.99
2017-01-21T12:02:05.533Z,99.99
2017-01-21T12:03:05.519Z,99.33
2017-01-21T12:04:05.502Z,98.48
2017-01-21T12:05:05.486Z,98.2
2017-01-21T12:06:05.472Z,99.99
2017-01-21T12:07:05.454Z,99.99
2017-01-21T12:08:05.438Z,99.99
2017-01-21T12:09:05.423Z,99.99
2017-01-21T12:10:05.409Z,99.99
2017-01-21T12:11:05.390Z,99.99
2017-01-21T12:12:05.375Z,99.99
2017-01-21T12:13:05.359Z,99.99
2017-01-21T12:14:05.343Z,99.99
2017-01-21T12:15:05.331Z,99.99
2017-01-21T12:16:05.311Z,99.99
2017-01-21T12:17:05.300Z,99.99
2017-01-21T12:18:05.280Z,99.99
2017-01-21T12:19:05.263Z,99.99
2017-01-21T12:20:05.248Z,99.99
2017-01-21T12:21:05.232Z,99.99
2017-01-21T12:22:05.217Z,99.99
2017-01-21T12:23:05.203Z,99.99
2017-01-21T12:24:05.185Z,99.99
2017-01-21T12:25:05.168Z,99.99
2017-01-21T12:26:05.154Z,99.99
2017-01-21T12:27:05.139Z,99.99
2017-01-21T12:28:05.121Z,99.99
2017-01-21T12:29:05.107Z,99.99
2017-01-21T12:30:05.100Z,99.99
2017-01-21T12:31:05.078Z,99.99
2017-01-21T12:32:05.057Z,99.99
2017-01-21T12:33:05.437Z,99.99
2017-01-21T12:34:05.031Z,99.99
2017-01-21T12:35:05.013Z,99.99
2017-01-21T12:36:04.996Z,99.99
2017-01-21T12:37:04.980Z,99.99
2017-01-21T12:38:04.965Z,99.99
2017-01-21T12:39:04.948Z,99.99
2017-01-21T12:40:05.336Z,99.99
2017-01-21T12:41:04.918Z,99.99
2017-01-21T12:42:04.903Z,99.99
2017-01-21T12:43:04.886Z,99.99
2017-01-21T12:44:04.870Z,99.99
2017-01-21T12:45:04.856Z,99.99
2017-01-21T12:46:04.841Z,99.99
2017-01-21T12:47:04.822Z,99.99
2017-01-21T12:48:04.806Z,99.99
2017-01-21T12:49:04.791Z,99.99
2017-01-21T12:50:04.776Z,99.99
2017-01-21T12:51:04.760Z,99.99
2017-01-21T12:52:04.743Z,99.99
2017-01-21T12:53:04.729Z,99.99
2017-01-21T12:54:04.712Z,99.99
2017-01-21T12:55:04.697Z,99.99